createdAt,value
2023-04-17T00:00:58.081Z,11.40
2023-04-17T00:03:25.992Z,11.40
2023-04-17T00:05:53.978Z,11.50
2023-04-17T00:08:21.808Z,11.50
2023-04-17T00:11:00.179Z,11.50
2023-04-17T00:13:33.676Z,11.50
2023-04-17T00:16:01.517Z,11.50
2023-04-17T00:18:29.361Z,11.40
2023-04-17T00:20:57.243Z,11.30
2023-04-17T00:23:26.618Z,11.40
2023-04-17T00:25:54.434Z,11.40
2023-04-17T00:28:22.335Z,11.30
2023-04-17T00:30:51.460Z,11.40
2023-04-17T00:33:19.370Z,11.40
2023-04-17T00:35:47.812Z,11.40
2023-04-17T00:38:15.673Z,11.40
2023-04-17T00:40:45.295Z,11.50
2023-04-17T00:43:13.269Z,11.40
2023-04-17T00:45:42.318Z,11.50
2023-04-17T00:48:13.370Z,11.50
2023-04-17T00:50:41.588Z,11.40
2023-04-17T00:53:09.594Z,11.50
2023-04-17T00:55:39.465Z,11.40
2023-04-17T00:58:07.519Z,11.50
2023-04-17T01:00:35.804Z,11.40
2023-04-17T01:03:03.810Z,11.40
2023-04-17T01:05:35.372Z,11.40
2023-04-17T01:08:03.280Z,11.40
2023-04-17T01:10:31.117Z,11.50
2023-04-17T01:13:06.538Z,11.50
2023-04-17T01:15:35.305Z,11.50
2023-04-17T01:18:03.447Z,11.40
2023-04-17T01:20:32.902Z,11.30
2023-04-17T01:23:01.780Z,11.20
2023-04-17T01:25:31.139Z,11.20
2023-04-17T01:27:59.096Z,11.10
2023-04-17T01:30:26.905Z,11.10
2023-04-17T01:32:55.401Z,11.10
2023-04-17T01:35:23.740Z,11.10
2023-04-17T01:37:52.111Z,11.10
2023-04-17T01:40:19.931Z,11.10
2023-04-17T01:42:49.219Z,11.00
2023-04-17T01:45:17.021Z,10.90
2023-04-17T01:47:44.876Z,10.70
2023-04-17T01:50:13.863Z,10.50
2023-04-17T01:52:41.660Z,10.40
2023-04-17T01:55:10.251Z,10.40
2023-04-17T01:57:38.150Z,10.30
2023-04-17T02:00:09.205Z,10.30
2023-04-17T02:02:37.114Z,10.20
2023-04-17T02:05:05.386Z,10.10
2023-04-17T02:07:33.148Z,10.10
2023-04-17T02:10:00.926Z,10.20
2023-04-17T02:12:28.792Z,10.20
2023-04-17T02:15:00.840Z,10.30
2023-04-17T02:17:30.078Z,10.30
2023-04-17T02:19:57.954Z,10.30
2023-04-17T02:22:25.872Z,10.30
2023-04-17T02:24:53.708Z,10.20
2023-04-17T02:27:21.994Z,10.20
2023-04-17T02:29:49.814Z,10.20
2023-04-17T02:32:18.292Z,10.20
2023-04-17T02:34:47.584Z,10.30
2023-04-17T02:37:15.415Z,10.40
2023-04-17T02:39:43.412Z,10.50
2023-04-17T02:42:12.910Z,10.50
2023-04-17T02:44:40.801Z,10.60
2023-04-17T02:47:08.679Z,10.60
2023-04-17T02:49:36.508Z,10.70
2023-04-17T02:52:06.020Z,10.80
2023-04-17T02:54:33.881Z,10.80
2023-04-17T02:57:01.744Z,10.80
2023-04-17T02:59:29.584Z,10.80
2023-04-17T03:01:59.717Z,10.90
2023-04-17T03:04:28.580Z,10.90
2023-04-17T03:06:56.456Z,10.90
2023-04-17T03:09:26.079Z,10.90
2023-04-17T03:11:53.898Z,11.00
2023-04-17T03:14:21.665Z,11.00
2023-04-17T03:16:49.548Z,11.00
2023-04-17T03:19:17.360Z,11.00
2023-04-17T03:21:45.234Z,10.90
2023-04-17T03:24:13.033Z,10.90
2023-04-17T03:26:42.203Z,10.80
2023-04-17T03:29:10.193Z,10.60
2023-04-17T03:31:38.172Z,10.50
2023-04-17T03:34:05.956Z,10.40
2023-04-17T03:36:33.733Z,10.30
2023-04-17T03:39:01.715Z,10.30
2023-04-17T03:41:29.561Z,10.40
2023-04-17T03:43:58.718Z,10.40
2023-04-17T03:46:26.568Z,10.50
2023-04-17T03:48:54.402Z,10.50
2023-04-17T03:51:22.298Z,10.50
2023-04-17T03:53:50.111Z,10.50
2023-04-17T03:56:18.134Z,10.50
2023-04-17T03:58:46.156Z,10.60
2023-04-17T04:01:15.400Z,10.60
2023-04-17T04:03:43.478Z,10.50
2023-04-17T04:06:11.609Z,10.50
2023-04-17T04:08:40.254Z,10.50
2023-04-17T04:11:08.162Z,10.50
2023-04-17T04:13:35.953Z,10.40
2023-04-17T04:16:03.826Z,10.50
2023-04-17T04:18:33.050Z,10.40
2023-04-17T04:21:00.944Z,10.40
2023-04-17T04:23:30.485Z,10.40
2023-04-17T04:26:01.580Z,10.40
2023-04-17T04:28:30.187Z,10.30
2023-04-17T04:30:58.739Z,10.30
2023-04-17T04:33:27.595Z,10.20
2023-04-17T04:36:00.869Z,10.20
2023-04-17T04:38:31.202Z,10.00
2023-04-17T04:41:05.996Z,9.90
2023-04-17T04:43:34.823Z,9.80
2023-04-17T04:46:02.722Z,9.60
2023-04-17T04:48:30.716Z,9.40
2023-04-17T04:50:59.922Z,9.30
2023-04-17T04:53:27.710Z,9.30
2023-04-17T04:55:55.645Z,9.10
2023-04-17T04:58:23.879Z,9.20
2023-04-17T05:00:51.771Z,9.10
2023-04-17T05:03:19.819Z,9.10
2023-04-17T05:05:47.832Z,9.00
2023-04-17T05:08:16.974Z,9.00
2023-04-17T05:10:46.036Z,9.00
2023-04-17T05:13:13.844Z,9.10
2023-04-17T05:15:42.303Z,9.10
2023-04-17T05:18:10.100Z,9.10
2023-04-17T05:20:38.591Z,9.00
2023-04-17T05:23:06.602Z,9.10
2023-04-17T05:25:35.779Z,9.10
2023-04-17T05:28:03.606Z,9.10
2023-04-17T05:30:31.377Z,9.10
2023-04-17T05:33:00.737Z,9.20
2023-04-17T05:35:28.804Z,9.20
2023-04-17T05:37:56.815Z,9.10
2023-04-17T05:40:24.974Z,9.10
2023-04-17T05:42:54.126Z,9.10
2023-04-17T05:45:24.187Z,9.00
2023-04-17T05:47:53.332Z,9.10
2023-04-17T05:50:21.341Z,9.10
2023-04-17T05:52:49.169Z,9.20
2023-04-17T05:55:17.156Z,9.30
2023-04-17T05:57:44.994Z,9.40
2023-04-17T06:00:15.631Z,9.40
2023-04-17T06:02:44.944Z,9.50
2023-04-17T06:05:12.989Z,9.60
2023-04-17T06:07:41.308Z,9.60
2023-04-17T06:10:10.417Z,9.70
2023-04-17T06:12:38.438Z,9.70
2023-04-17T06:15:09.035Z,9.80
2023-04-17T06:17:38.798Z,9.80
2023-04-17T06:20:10.203Z,9.90
2023-04-17T06:22:38.470Z,10.00
2023-04-17T06:25:07.205Z,10.10
2023-04-17T06:27:36.781Z,10.20
2023-04-17T06:30:06.310Z,10.30
2023-04-17T06:32:34.203Z,10.30
2023-04-17T06:35:03.569Z,10.30
2023-04-17T06:37:31.360Z,10.30
2023-04-17T06:39:59.156Z,10.20
2023-04-17T06:42:28.019Z,10.30
2023-04-17T06:44:56.232Z,10.40
2023-04-17T06:47:24.057Z,10.40
2023-04-17T06:49:51.884Z,10.40
2023-04-17T06:52:22.285Z,10.40
2023-04-17T06:54:50.354Z,10.50
2023-04-17T06:57:18.131Z,10.50
2023-04-17T06:59:46.004Z,10.50
2023-04-17T07:02:13.957Z,10.60
2023-04-17T07:04:41.952Z,10.50
2023-04-17T07:07:10.238Z,10.60
2023-04-17T07:09:39.518Z,10.60
2023-04-17T07:12:07.460Z,10.60
2023-04-17T07:14:35.361Z,10.60
2023-04-17T07:17:04.252Z,10.60
2023-04-17T07:19:32.070Z,10.70
2023-04-17T07:21:59.896Z,10.70
2023-04-17T07:24:27.739Z,10.70
2023-04-17T07:26:57.737Z,10.80
2023-04-17T07:29:25.649Z,10.80
2023-04-17T07:31:53.518Z,10.90
2023-04-17T07:34:21.764Z,10.80
2023-04-17T07:36:52.085Z,10.90
2023-04-17T07:39:20.200Z,11.00
2023-04-17T07:41:48.028Z,11.10
2023-04-17T07:44:17.183Z,11.30
2023-04-17T07:46:45.137Z,11.40
2023-04-17T07:49:13.101Z,11.70
2023-04-17T07:51:42.638Z,11.80
2023-04-17T07:54:10.433Z,11.80
2023-04-17T07:56:38.434Z,11.90
2023-04-17T07:59:06.273Z,11.90
2023-04-17T08:01:35.422Z,11.80
2023-04-17T08:04:03.631Z,11.80
2023-04-17T08:06:32.457Z,11.70
2023-04-17T08:09:02.164Z,11.60
2023-04-17T08:11:30.168Z,11.50
2023-04-17T08:13:57.980Z,11.50
2023-04-17T08:16:25.775Z,11.40
2023-04-17T08:18:54.960Z,11.40
2023-04-17T08:21:22.765Z,11.40
2023-04-17T08:23:50.940Z,11.20
2023-04-17T08:26:20.417Z,11.20
2023-04-17T08:28:48.267Z,11.10
2023-04-17T08:31:16.150Z,11.10
2023-04-17T08:33:43.945Z,11.00
2023-04-17T08:36:15.332Z,11.00
2023-04-17T08:38:44.988Z,10.90
2023-04-17T08:41:15.817Z,10.90
2023-04-17T08:43:49.539Z,10.90
2023-04-17T08:46:18.842Z,10.80
2023-04-17T08:48:47.164Z,10.80
2023-04-17T08:51:16.583Z,10.70
2023-04-17T08:53:44.480Z,10.70
2023-04-17T08:56:12.317Z,10.70
2023-04-17T08:58:40.270Z,10.80
2023-04-17T09:01:12.231Z,10.70
2023-04-17T09:03:43.941Z,10.80
2023-04-17T09:06:12.712Z,10.80
2023-04-17T09:08:56.614Z,10.90
2023-04-17T09:11:25.006Z,11.00
2023-04-17T09:13:53.032Z,11.10
2023-04-17T09:16:21.092Z,11.10
2023-04-17T09:18:49.723Z,11.10
2023-04-17T09:21:19.733Z,11.20
2023-04-17T09:23:51.096Z,11.30
2023-04-17T09:26:20.935Z,11.40
2023-04-17T09:29:09.282Z,11.40
2023-04-17T09:31:39.100Z,11.50
2023-04-17T09:34:09.052Z,11.60
2023-04-17T09:36:38.438Z,11.60
2023-04-17T09:39:20.767Z,11.80
2023-04-17T09:41:48.990Z,11.90
2023-04-17T09:44:26.885Z,12.00
2023-04-17T09:46:55.468Z,12.10
2023-04-17T09:49:28.895Z,12.10
2023-04-17T09:51:58.657Z,12.10
2023-04-17T09:54:31.271Z,12.00
2023-04-17T09:56:59.702Z,11.90
2023-04-17T09:59:28.796Z,11.80
2023-04-17T10:01:57.109Z,11.70
2023-04-17T10:04:25.139Z,11.60
2023-04-17T10:06:53.178Z,11.50
2023-04-17T10:09:20.984Z,11.50
2023-04-17T10:11:50.865Z,11.70
2023-04-17T10:14:23.545Z,11.80
2023-04-17T10:16:51.534Z,12.00
2023-04-17T10:19:30.783Z,12.20
2023-04-17T10:22:29.671Z,12.40
2023-04-17T10:25:20.389Z,12.50
2023-04-17T10:27:54.748Z,12.70
2023-04-17T10:30:23.909Z,13.10
2023-04-17T10:33:24.665Z,13.50
2023-04-17T10:35:53.436Z,14.00
2023-04-17T10:38:36.877Z,14.40
2023-04-17T10:41:09.138Z,14.60
2023-04-17T10:43:43.360Z,14.70
2023-04-17T10:46:12.734Z,14.50
2023-04-17T10:48:47.685Z,14.30
2023-04-17T10:51:41.457Z,14.10
2023-04-17T10:54:13.496Z,14.00
2023-04-17T10:56:43.478Z,14.00
2023-04-17T10:59:14.169Z,14.00
2023-04-17T11:01:59.698Z,14.10
2023-04-17T11:04:30.352Z,13.90
2023-04-17T11:06:58.470Z,13.70
2023-04-17T11:09:28.354Z,13.50
2023-04-17T11:12:01.337Z,13.30
2023-04-17T11:14:31.144Z,13.10
2023-04-17T11:16:59.013Z,12.90
2023-04-17T11:19:27.033Z,12.80
2023-04-17T11:21:58.455Z,12.70
2023-04-17T11:24:27.594Z,12.60
2023-04-17T11:26:56.445Z,12.60
2023-04-17T11:29:26.296Z,12.50
2023-04-17T11:31:58.047Z,12.60
2023-04-17T11:34:27.240Z,12.80
2023-04-17T11:36:57.083Z,12.90
2023-04-17T11:39:26.436Z,13.10
2023-04-17T11:41:54.862Z,13.40
2023-04-17T11:44:22.669Z,13.60
2023-04-17T11:46:51.557Z,13.80
2023-04-17T11:49:27.226Z,13.90
2023-04-17T11:51:55.303Z,13.80
2023-04-17T11:54:27.323Z,13.70
2023-04-17T11:57:02.742Z,13.60
2023-04-17T11:59:31.533Z,13.60
2023-04-17T12:02:00.678Z,13.60
2023-04-17T12:04:33.521Z,13.80
2023-04-17T12:07:02.109Z,13.90
2023-04-17T12:09:31.791Z,13.90
2023-04-17T12:12:00.236Z,13.70
2023-04-17T12:14:28.052Z,13.70
2023-04-17T12:16:55.852Z,13.50
2023-04-17T12:19:25.498Z,13.40
2023-04-17T12:21:55.651Z,13.40
2023-04-17T12:24:24.839Z,13.30
2023-04-17T12:26:53.540Z,13.20
2023-04-17T12:29:29.553Z,13.20
2023-04-17T12:32:04.925Z,13.10
2023-04-17T12:34:32.844Z,13.00
2023-04-17T12:37:02.267Z,13.00
2023-04-17T12:39:30.088Z,12.90
2023-04-17T12:41:57.889Z,12.80
2023-04-17T12:44:25.712Z,12.80
2023-04-17T12:46:53.560Z,12.70
2023-04-17T12:49:23.422Z,12.70
2023-04-17T12:51:51.457Z,12.70
2023-04-17T12:54:21.019Z,12.70
2023-04-17T12:56:48.843Z,12.70
2023-04-17T12:59:17.309Z,12.70
2023-04-17T13:01:45.163Z,12.70
2023-04-17T13:04:13.536Z,12.70
2023-04-17T13:06:41.805Z,12.70
2023-04-17T13:09:10.254Z,12.70
2023-04-17T13:11:39.483Z,12.70
2023-04-17T13:14:07.408Z,12.60
2023-04-17T13:16:35.366Z,12.60
2023-04-17T13:19:03.199Z,12.60
2023-04-17T13:21:30.989Z,12.60
2023-04-17T13:23:58.930Z,12.70
2023-04-17T13:26:26.754Z,12.70
2023-04-17T13:28:55.889Z,12.70
2023-04-17T13:31:24.497Z,12.80
2023-04-17T13:33:52.615Z,13.00
2023-04-17T13:36:20.415Z,13.10
2023-04-17T13:38:48.247Z,13.20
2023-04-17T13:41:16.104Z,13.20
2023-04-17T13:43:44.397Z,13.30
2023-04-17T13:46:16.076Z,13.20
2023-04-17T13:48:44.311Z,13.10
2023-04-17T13:51:12.253Z,13.00
2023-04-17T13:53:40.101Z,12.90
2023-04-17T13:56:07.969Z,12.90
2023-04-17T13:58:35.832Z,12.80
2023-04-17T14:01:03.737Z,12.90
2023-04-17T14:03:32.998Z,12.90
2023-04-17T14:06:01.027Z,13.00
2023-04-17T14:08:28.830Z,13.10
2023-04-17T14:10:56.586Z,13.10
2023-04-17T14:13:24.433Z,13.10
2023-04-17T14:15:53.771Z,13.20
2023-04-17T14:18:21.987Z,13.10
2023-04-17T14:20:52.574Z,13.10
2023-04-17T14:23:20.679Z,13.00
2023-04-17T14:25:48.543Z,13.00
2023-04-17T14:28:16.506Z,13.00
2023-04-17T14:30:44.479Z,13.00
2023-04-17T14:33:12.389Z,13.00
2023-04-17T14:35:40.509Z,12.90
2023-04-17T14:38:09.853Z,13.00
2023-04-17T14:40:37.765Z,13.00
2023-04-17T14:43:05.635Z,13.00
2023-04-17T14:45:34.533Z,13.10
2023-04-17T14:48:02.448Z,13.10
2023-04-17T14:50:30.435Z,13.20
2023-04-17T14:52:58.270Z,13.20
2023-04-17T14:55:27.655Z,13.30
2023-04-17T14:57:55.755Z,13.20
2023-04-17T15:00:23.947Z,13.20
2023-04-17T15:02:51.908Z,13.20
2023-04-17T15:05:20.993Z,13.20
2023-04-17T15:07:49.341Z,13.30
2023-04-17T15:10:17.224Z,13.30
2023-04-17T15:12:46.340Z,13.30
2023-04-17T15:15:14.132Z,13.30
2023-04-17T15:17:42.210Z,13.20
2023-04-17T15:20:10.750Z,13.20
2023-04-17T15:22:38.583Z,13.30
2023-04-17T15:25:07.098Z,13.30
2023-04-17T15:27:34.877Z,13.30
2023-04-17T15:30:08.753Z,13.30
2023-04-17T15:32:36.612Z,13.30
2023-04-17T15:35:05.285Z,13.40
2023-04-17T15:37:33.155Z,13.50
2023-04-17T15:40:00.977Z,13.50
2023-04-17T15:42:30.309Z,13.60
2023-04-17T15:44:58.110Z,13.60
2023-04-17T15:47:27.328Z,13.60
2023-04-17T15:49:55.445Z,13.60
2023-04-17T15:52:23.295Z,13.50
2023-04-17T15:54:51.163Z,13.50
2023-04-17T15:57:18.959Z,13.50
2023-04-17T15:59:46.792Z,13.50
2023-04-17T16:02:15.160Z,13.40
2023-04-17T16:04:44.513Z,13.40
2023-04-17T16:07:14.048Z,13.40
2023-04-17T16:09:44.271Z,13.30
2023-04-17T16:12:12.221Z,13.30
2023-04-17T16:14:40.046Z,13.20
2023-04-17T16:17:07.838Z,13.30
2023-04-17T16:19:35.759Z,13.30
2023-04-17T16:22:04.921Z,13.30
2023-04-17T16:24:32.741Z,13.30
2023-04-17T16:27:02.765Z,13.30
2023-04-17T16:29:30.686Z,13.30
2023-04-17T16:31:59.103Z,13.40
2023-04-17T16:34:26.950Z,13.40
2023-04-17T16:36:54.771Z,13.40
2023-04-17T16:39:23.953Z,13.40
2023-04-17T16:41:52.704Z,13.50
2023-04-17T16:44:20.782Z,13.60
2023-04-17T16:49:19.379Z,13.60
2023-04-17T16:51:47.187Z,13.60
2023-04-17T16:54:15.185Z,13.50
2023-04-17T16:56:44.413Z,13.50
2023-04-17T16:59:12.345Z,13.40
2023-04-17T17:01:40.387Z,13.30
2023-04-17T17:04:08.280Z,13.30
2023-04-17T17:06:36.151Z,13.20
2023-04-17T17:09:03.970Z,13.30
2023-04-17T17:11:31.804Z,13.20
2023-04-17T17:14:00.981Z,13.20
2023-04-17T17:16:28.859Z,13.20
2023-04-17T17:18:56.668Z,13.20
2023-04-17T17:21:24.454Z,13.10
2023-04-17T17:23:52.222Z,13.10
2023-04-17T17:26:20.042Z,13.10
2023-04-17T17:28:51.022Z,13.10
2023-04-17T17:31:21.037Z,13.00
2023-04-17T17:33:50.147Z,13.00
2023-04-17T17:36:18.725Z,13.00
2023-04-17T17:38:46.673Z,13.00
2023-04-17T17:41:14.528Z,13.00
2023-04-17T17:43:43.041Z,12.90
2023-04-17T17:46:10.940Z,13.00
2023-04-17T17:48:40.109Z,12.90
2023-04-17T17:51:21.067Z,13.00
2023-04-17T17:53:49.176Z,13.00
2023-04-17T17:56:17.066Z,12.90
2023-04-17T17:58:44.872Z,12.90
2023-04-17T18:01:12.710Z,12.90
2023-04-17T18:03:42.141Z,12.80
2023-04-17T18:06:10.103Z,12.80
2023-04-17T18:08:38.129Z,12.80
2023-04-17T18:11:06.042Z,12.80
2023-04-17T18:13:33.860Z,12.70
2023-04-17T18:16:04.501Z,12.70
2023-04-17T18:18:32.551Z,12.70
2023-04-17T18:21:06.104Z,12.80
2023-04-17T18:23:34.032Z,12.80
2023-04-17T18:26:03.177Z,12.70
2023-04-17T18:28:31.133Z,12.70
2023-04-17T18:30:58.964Z,12.70
2023-04-17T18:33:26.872Z,12.60
2023-04-17T18:35:54.733Z,12.60
2023-04-17T18:38:23.927Z,12.50
2023-04-17T18:40:55.389Z,12.40
2023-04-17T18:43:23.308Z,12.50
2023-04-17T18:45:51.187Z,12.40
2023-04-17T18:48:19.027Z,12.40
2023-04-17T18:50:46.989Z,12.30
2023-04-17T18:53:14.764Z,12.30
2023-04-17T18:55:43.933Z,12.10
2023-04-17T18:58:11.778Z,12.10
2023-04-17T19:00:39.639Z,12.10
2023-04-17T19:03:07.489Z,12.00
2023-04-17T19:05:35.379Z,12.00
2023-04-17T19:08:03.205Z,12.10
2023-04-17T19:10:31.022Z,12.00
2023-04-17T19:13:00.168Z,11.90
2023-04-17T19:15:28.101Z,11.90
2023-04-17T19:17:56.039Z,11.90
2023-04-17T19:20:23.963Z,11.80
2023-04-17T19:22:51.760Z,11.80
2023-04-17T19:25:19.755Z,11.60
2023-04-17T19:27:47.600Z,11.70
2023-04-17T19:30:17.270Z,11.70
2023-04-17T19:32:45.174Z,11.60
2023-04-17T19:35:13.059Z,11.60
2023-04-17T19:37:40.868Z,11.60
2023-04-17T19:40:21.412Z,11.50
2023-04-17T19:42:52.744Z,11.50
2023-04-17T19:45:22.016Z,11.50
2023-04-17T19:47:54.912Z,11.50
2023-04-17T19:50:23.564Z,11.40
2023-04-17T19:52:52.027Z,11.40
2023-04-17T19:55:20.811Z,11.30
2023-04-17T19:57:50.342Z,11.30
2023-04-17T20:00:18.811Z,11.30
2023-04-17T20:02:48.329Z,11.20
2023-04-17T20:05:18.084Z,11.20
2023-04-17T20:07:45.989Z,11.10
2023-04-17T20:10:19.865Z,11.00
2023-04-17T20:12:47.703Z,11.00
2023-04-17T20:15:19.672Z,10.90
2023-04-17T20:17:49.110Z,11.00
2023-04-17T20:20:16.986Z,10.90
2023-04-17T20:22:44.973Z,11.00
2023-04-17T20:25:12.819Z,10.90
2023-04-17T20:27:40.724Z,10.90
2023-04-17T20:30:09.644Z,10.80
2023-04-17T20:32:37.506Z,10.80
2023-04-17T20:35:07.779Z,10.70
2023-04-17T20:37:35.641Z,10.70
2023-04-17T20:40:05.840Z,10.60
2023-04-17T20:42:33.694Z,10.60
2023-04-17T20:45:01.538Z,10.50
2023-04-17T20:47:29.559Z,10.50
2023-04-17T20:49:57.384Z,10.50
2023-04-17T20:52:26.548Z,10.50
2023-04-17T20:54:55.667Z,10.60
2023-04-17T20:57:23.984Z,10.70
2023-04-17T20:59:51.819Z,10.90
2023-04-17T21:02:19.853Z,11.00
2023-04-17T21:04:47.968Z,11.10
2023-04-17T21:07:15.990Z,11.20
2023-04-17T21:09:45.147Z,11.30
2023-04-17T21:12:12.965Z,11.40
2023-04-17T21:14:41.990Z,11.40
2023-04-17T21:17:11.094Z,11.40
2023-04-17T21:19:39.094Z,11.40
2023-04-17T21:22:07.203Z,11.50
2023-04-17T21:24:35.040Z,11.40
2023-04-17T21:27:04.610Z,11.40
2023-04-17T21:29:32.443Z,11.30
2023-04-17T21:32:00.464Z,11.20
2023-04-17T21:34:28.461Z,11.10
2023-04-17T21:36:56.301Z,10.90
2023-04-17T21:39:24.120Z,10.80
2023-04-17T21:41:51.986Z,10.80
2023-04-17T21:44:21.144Z,10.70
2023-04-17T21:46:49.043Z,10.70
2023-04-17T21:49:18.262Z,10.70
2023-04-17T21:51:46.131Z,10.70
2023-04-17T21:54:14.266Z,10.60
2023-04-17T21:56:42.511Z,10.60
2023-04-17T21:59:10.522Z,10.60
2023-04-17T22:01:39.739Z,10.60
2023-04-17T22:04:07.643Z,10.60
2023-04-17T22:06:36.487Z,10.60
2023-04-17T22:09:04.978Z,10.50
2023-04-17T22:11:32.953Z,10.50
2023-04-17T22:14:00.810Z,10.50
2023-04-17T22:16:28.640Z,10.40
2023-04-17T22:18:57.816Z,10.30
2023-04-17T22:21:26.819Z,10.40
2023-04-17T22:23:54.606Z,10.30
2023-04-17T22:26:22.586Z,10.50
2023-04-17T22:28:50.514Z,10.50
2023-04-17T22:31:18.348Z,10.50
2023-04-17T22:33:46.382Z,10.50
2023-04-17T22:36:15.761Z,10.50
2023-04-17T22:38:43.554Z,10.50
2023-04-17T22:41:11.333Z,10.40
2023-04-17T22:43:39.167Z,10.30
2023-04-17T22:46:07.037Z,10.30
2023-04-17T22:48:34.881Z,10.20
2023-04-17T22:51:03.574Z,10.20
2023-04-17T22:53:32.709Z,10.10
2023-04-17T22:56:01.789Z,10.00
2023-04-17T22:58:31.857Z,9.90
2023-04-17T23:00:59.881Z,9.90
2023-04-17T23:03:27.750Z,10.00
2023-04-17T23:05:55.626Z,10.00
2023-04-17T23:08:23.952Z,10.00
2023-04-17T23:10:59.934Z,10.00
2023-04-17T23:13:28.251Z,9.90
2023-04-17T23:15:56.139Z,9.80
2023-04-17T23:18:24.430Z,9.70
2023-04-17T23:20:52.213Z,9.60
2023-04-17T23:23:20.017Z,9.60
2023-04-17T23:25:47.808Z,9.60
2023-04-17T23:28:17.009Z,9.50
2023-04-17T23:30:44.831Z,9.30
2023-04-17T23:33:13.756Z,9.30
2023-04-17T23:35:41.557Z,9.30
2023-04-17T23:38:09.385Z,9.30
2023-04-17T23:40:37.391Z,9.40
2023-04-17T23:43:05.237Z,9.40
2023-04-17T23:45:34.383Z,9.40
2023-04-17T23:48:02.252Z,9.40
2023-04-17T23:50:30.113Z,9.40
2023-04-17T23:52:58.025Z,9.30
2023-04-17T23:55:27.086Z,9.30
2023-04-17T23:57:54.915Z,9.20
